Time;durP1;ratioP1;P1;durP2;ratioP2;P2;SDS_P1;SDS_P2;PMS_P1;PMS_P2;Temp;Humidity;BMP_temperature;BMP_pressure;BME280_temperature;BME280_humidity;BME280_pressure;Samples;Min_cycle;Max_cycle;Signal;HPM_P1;HPM_P2
2022/08/26 00:01:41;;;;;;;11.27;10.15;;;;;;;;;;4988417;28;20034;-62
2022/08/26 00:04:07;;;;;;;11.27;10.07;;;;;;;;;;4983806;28;20022;-62
2022/08/26 00:06:32;;;;;;;11.00;9.68;;;;;;;;;;4982939;28;20037;-62
2022/08/26 00:08:58;;;;;;;10.48;9.40;;;;;;;;;;4987875;28;20038;-62
2022/08/26 00:11:23;;;;;;;12.15;10.32;;;;;;;;;;4986271;28;20045;-62
2022/08/26 00:13:48;;;;;;;11.35;10.32;;;;;;;;;;4987963;28;20081;-61
2022/08/26 00:16:13;;;;;;;11.05;9.70;;;;;;;;;;4988410;28;20034;-62
2022/08/26 00:18:39;;;;;;;11.68;10.30;;;;;;;;;;4987566;28;20034;-61
2022/08/26 00:21:05;;;;;;;10.77;9.68;;;;;;;;;;4987500;28;20030;-61
2022/08/26 00:23:30;;;;;;;10.75;9.75;;;;;;;;;;4987802;28;20030;-61
2022/08/26 00:25:55;;;;;;;12.38;10.80;;;;;;;;;;4987332;28;20019;-60
2022/08/26 00:28:21;;;;;;;10.75;9.88;;;;;;;;;;4987365;28;20444;-61
2022/08/26 00:30:49;;;;;;;12.80;11.63;;;;;;;;;;4987517;28;20034;-62
2022/08/26 00:33:15;;;;;;;14.77;10.48;;;;;;;;;;4988163;28;20112;-61
2022/08/26 00:35:40;;;;;;;11.50;10.35;;;;;;;;;;4987715;28;20054;-61
2022/08/26 00:38:06;;;;;;;11.38;10.23;;;;;;;;;;4981936;28;20129;-61
2022/08/26 00:40:33;;;;;;;11.20;10.05;;;;;;;;;;4983236;28;20502;-62
2022/08/26 00:42:59;;;;;;;13.00;10.73;;;;;;;;;;4986929;28;20034;-61
2022/08/26 00:45:24;;;;;;;10.77;9.88;;;;;;;;;;4987200;28;20030;-62
2022/08/26 00:47:58;;;;;;;11.02;9.93;;;;;;;;;;4987718;28;20030;-61
2022/08/26 00:50:32;;;;;;;12.25;10.95;;;;;;;;;;4986688;28;20026;-61
2022/08/26 00:52:58;;;;;;;12.37;11.00;;;;;;;;;;4985926;28;20561;-61
2022/08/26 00:55:34;;;;;;;11.52;10.43;;;;;;;;;;4981442;28;20129;-61
2022/08/26 00:58:00;;;;;;;12.02;10.77;;;;;;;;;;4984544;28;20033;-61
2022/08/26 01:00:26;;;;;;;11.07;10.02;;;;;;;;;;4986254;28;20029;-61
2022/08/26 01:02:53;;;;;;;11.15;10.05;;;;;;;;;;4987189;28;20081;-61
2022/08/26 01:05:18;;;;;;;11.90;10.80;;;;;;;;;;4987098;28;20030;-62
2022/08/26 01:07:44;;;;;;;11.82;10.73;;;;;;;;;;4971209;28;20038;-61
2022/08/26 01:10:11;;;;;;;14.27;10.85;;;;;;;;;;4960251;28;20033;-60
2022/08/26 01:12:43;;;;;;;11.07;10.07;;;;;;;;;;4985885;28;20034;-61
2022/08/26 01:15:10;;;;;;;12.70;11.35;;;;;;;;;;4969519;28;20081;-61
2022/08/26 01:17:36;;;;;;;12.35;10.07;;;;;;;;;;4985636;28;20135;-61
2022/08/26 01:20:06;;;;;;;12.48;11.23;;;;;;;;;;4986479;28;20022;-62
2022/08/26 01:22:50;;;;;;;11.82;10.73;;;;;;;;;;4987128;28;20049;-61
2022/08/26 01:25:15;;;;;;;10.93;9.90;;;;;;;;;;4960591;28;20484;-61
2022/08/26 01:27:41;;;;;;;11.60;10.50;;;;;;;;;;4985772;28;20034;-62
2022/08/26 01:30:06;;;;;;;12.43;10.20;;;;;;;;;;4969737;28;20077;-61
2022/08/26 01:32:32;;;;;;;11.00;9.85;;;;;;;;;;4986634;28;20022;-61
2022/08/26 01:34:58;;;;;;;12.63;11.43;;;;;;;;;;4984930;28;20026;-62
2022/08/26 01:37:25;;;;;;;12.43;11.27;;;;;;;;;;4968905;28;20590;-62
2022/08/26 01:39:52;;;;;;;13.10;11.52;;;;;;;;;;4985928;28;20022;-63
2022/08/26 01:42:18;;;;;;;12.63;11.20;;;;;;;;;;4986206;28;20062;-60
2022/08/26 01:45:06;;;;;;;15.48;11.65;;;;;;;;;;4985145;28;20038;-60
2022/08/26 01:47:33;;;;;;;11.93;10.77;;;;;;;;;;4972085;28;20050;-62
2022/08/26 01:50:00;;;;;;;13.43;12.02;;;;;;;;;;4980329;28;20018;-62
2022/08/26 01:52:26;;;;;;;12.82;11.18;;;;;;;;;;4984874;28;20026;-63
2022/08/26 01:54:54;;;;;;;13.07;11.90;;;;;;;;;;4985301;28;20689;-61
2022/08/26 01:57:19;;;;;;;12.45;11.02;;;;;;;;;;4985626;28;20366;-62
2022/08/26 01:59:46;;;;;;;11.85;10.75;;;;;;;;;;4970266;28;20025;-62
2022/08/26 02:02:11;;;;;;;11.93;10.73;;;;;;;;;;4986770;28;20037;-61
2022/08/26 02:04:39;;;;;;;12.45;11.13;;;;;;;;;;4985005;28;20034;-61
2022/08/26 02:07:06;;;;;;;15.07;11.38;;;;;;;;;;4985504;28;20101;-61
2022/08/26 02:09:32;;;;;;;11.82;10.23;;;;;;;;;;4985887;28;20030;-60
2022/08/26 02:12:00;;;;;;;11.75;10.68;;;;;;;;;;4985581;28;20027;-61
2022/08/26 02:14:31;;;;;;;12.13;10.90;;;;;;;;;;4985177;28;20023;-61
2022/08/26 02:16:57;;;;;;;13.52;11.90;;;;;;;;;;4985554;28;20500;-61
2022/08/26 02:19:25;;;;;;;11.90;10.77;;;;;;;;;;4984978;28;20043;-63
2022/08/26 02:21:51;;;;;;;12.98;11.65;;;;;;;;;;4983847;28;20101;-60
2022/08/26 02:24:21;;;;;;;12.90;11.57;;;;;;;;;;4983565;28;20033;-62
2022/08/26 02:26:47;;;;;;;11.80;10.63;;;;;;;;;;4985688;28;20022;-64
2022/08/26 02:29:23;;;;;;;12.02;10.82;;;;;;;;;;4984960;28;20033;-59
2022/08/26 02:31:49;;;;;;;11.55;10.50;;;;;;;;;;4984887;28;20153;-59
2022/08/26 02:34:17;;;;;;;11.68;10.48;;;;;;;;;;4984269;28;20086;-58
2022/08/26 02:36:43;;;;;;;12.07;10.73;;;;;;;;;;4985338;28;20494;-58
2022/08/26 02:39:08;;;;;;;11.85;10.60;;;;;;;;;;4957968;28;20436;-58
2022/08/26 02:41:34;;;;;;;11.88;10.88;;;;;;;;;;4985600;28;20026;-58
2022/08/26 02:43:59;;;;;;;11.90;10.80;;;;;;;;;;4984784;28;20022;-58
2022/08/26 02:46:25;;;;;;;12.38;11.25;;;;;;;;;;4984688;28;20515;-58
2022/08/26 02:48:50;;;;;;;13.55;11.25;;;;;;;;;;4984667;28;20099;-58
2022/08/26 02:51:15;;;;;;;14.15;11.77;;;;;;;;;;4984712;28;20032;-58
2022/08/26 02:53:41;;;;;;;12.32;11.23;;;;;;;;;;4985253;28;20023;-60
2022/08/26 02:56:06;;;;;;;13.32;11.95;;;;;;;;;;4984611;28;20045;-59
2022/08/26 02:58:32;;;;;;;13.70;11.80;;;;;;;;;;4984167;28;20763;-58
2022/08/26 03:00:57;;;;;;;15.52;11.48;;;;;;;;;;4984276;28;20061;-58
2022/08/26 03:03:23;;;;;;;11.95;10.07;;;;;;;;;;4967972;28;20661;-59
2022/08/26 03:05:48;;;;;;;11.77;10.68;;;;;;;;;;4984083;28;20400;-60
2022/08/26 03:08:14;;;;;;;12.57;10.60;;;;;;;;;;4985712;28;20038;-61
2022/08/26 03:10:39;;;;;;;13.88;10.93;;;;;;;;;;4983776;28;20034;-61
2022/08/26 03:13:04;;;;;;;13.30;11.88;;;;;;;;;;4983845;28;20026;-62
2022/08/26 03:15:31;;;;;;;12.15;11.05;;;;;;;;;;4983722;28;20030;-61
2022/08/26 03:17:56;;;;;;;11.98;10.77;;;;;;;;;;4957625;28;20507;-61
2022/08/26 03:20:21;;;;;;;12.38;10.15;;;;;;;;;;4983845;28;20026;-63
2022/08/26 03:22:48;;;;;;;13.40;10.52;;;;;;;;;;4985581;28;20029;-61
2022/08/26 03:25:17;;;;;;;13.68;10.32;;;;;;;;;;4984520;28;20030;-62
2022/08/26 03:27:42;;;;;;;12.23;10.90;;;;;;;;;;4985014;28;20050;-62
2022/08/26 03:32:52;;;;;;;12.75;10.63;;;;;;;;;;4984673;28;20134;-63
2022/08/26 03:35:17;;;;;;;13.90;11.25;;;;;;;;;;4985003;28;20026;-63
2022/08/26 03:37:42;;;;;;;11.63;10.43;;;;;;;;;;4984063;28;20073;-62
2022/08/26 03:40:09;;;;;;;13.95;10.10;;;;;;;;;;4984399;28;20039;-64
2022/08/26 03:42:35;;;;;;;13.50;10.93;;;;;;;;;;4984586;28;20069;-64
2022/08/26 03:45:00;;;;;;;11.52;10.43;;;;;;;;;;4985356;28;20026;-64
2022/08/26 03:47:26;;;;;;;13.65;10.85;;;;;;;;;;4984874;28;20515;-68
2022/08/26 03:49:51;;;;;;;14.27;11.52;;;;;;;;;;4983877;28;20117;-63
2022/08/26 03:52:16;;;;;;;13.68;10.95;;;;;;;;;;4983280;28;20062;-63
2022/08/26 03:54:42;;;;;;;11.52;10.43;;;;;;;;;;4984504;28;20038;-64
2022/08/26 03:57:07;;;;;;;12.93;11.35;;;;;;;;;;4983606;28;20073;-63
2022/08/26 03:59:33;;;;;;;12.85;11.65;;;;;;;;;;4980745;28;20510;-65
2022/08/26 04:01:58;;;;;;;13.35;11.23;;;;;;;;;;4979427;28;20069;-64
2022/08/26 04:04:23;;;;;;;13.73;11.40;;;;;;;;;;4984597;28;20030;-64
2022/08/26 04:06:49;;;;;;;11.52;10.43;;;;;;;;;;4984458;28;20105;-64
2022/08/26 04:09:18;;;;;;;12.75;10.25;;;;;;;;;;4984360;28;20546;-64
2022/08/26 04:11:44;;;;;;;12.20;10.68;;;;;;;;;;4988437;28;20034;-65
2022/08/26 04:14:13;;;;;;;12.20;10.52;;;;;;;;;;4988326;28;20038;-64
2022/08/26 04:16:38;;;;;;;11.52;10.30;;;;;;;;;;4973328;28;20049;-64
2022/08/26 04:19:03;;;;;;;11.43;10.27;;;;;;;;;;4988147;28;20038;-65
2022/08/26 04:21:28;;;;;;;13.50;10.82;;;;;;;;;;4988361;28;20149;-64
2022/08/26 04:23:54;;;;;;;13.68;11.80;;;;;;;;;;4987863;28;20030;-64
2022/08/26 04:26:20;;;;;;;12.70;11.38;;;;;;;;;;4988469;28;20050;-64
2022/08/26 04:28:46;;;;;;;12.13;11.02;;;;;;;;;;4987346;28;20066;-64
2022/08/26 04:31:13;;;;;;;11.88;10.70;;;;;;;;;;4986901;28;20110;-64
2022/08/26 04:33:39;;;;;;;13.95;11.10;;;;;;;;;;4987103;28;20066;-64
2022/08/26 04:36:04;;;;;;;13.07;11.25;;;;;;;;;;4961167;28;20032;-63
2022/08/26 04:38:30;;;;;;;14.60;13.07;;;;;;;;;;4987900;28;20125;-65
2022/08/26 04:40:55;;;;;;;12.82;11.05;;;;;;;;;;4986986;28;20026;-66
2022/08/26 04:43:21;;;;;;;16.45;11.10;;;;;;;;;;4987134;28;20484;-65
2022/08/26 04:45:46;;;;;;;11.80;10.55;;;;;;;;;;4988005;28;20097;-65
2022/08/26 04:48:11;;;;;;;12.15;10.95;;;;;;;;;;4987623;28;20507;-65
2022/08/26 04:50:37;;;;;;;12.38;9.75;;;;;;;;;;4987351;28;20030;-64
2022/08/26 04:53:03;;;;;;;11.93;10.30;;;;;;;;;;4987172;28;20033;-65
2022/08/26 04:55:28;;;;;;;10.57;9.57;;;;;;;;;;4987420;28;20034;-65
2022/08/26 04:57:53;;;;;;;13.88;10.93;;;;;;;;;;4987053;28;20034;-65
2022/08/26 05:00:19;;;;;;;10.88;9.77;;;;;;;;;;4987390;28;20035;-65
2022/08/26 05:02:45;;;;;;;12.30;10.73;;;;;;;;;;4986428;28;20109;-64
2022/08/26 05:05:10;;;;;;;11.43;9.95;;;;;;;;;;4987493;28;20528;-65
2022/08/26 05:07:36;;;;;;;10.75;9.75;;;;;;;;;;4986846;28;20054;-65
2022/08/26 05:10:01;;;;;;;12.40;11.10;;;;;;;;;;4987426;28;20030;-65
2022/08/26 05:12:27;;;;;;;11.02;9.93;;;;;;;;;;4986488;28;20030;-65
2022/08/26 05:14:52;;;;;;;10.27;9.25;;;;;;;;;;4986882;28;20376;-64
2022/08/26 05:17:18;;;;;;;11.43;10.32;;;;;;;;;;4986938;28;20037;-65
2022/08/26 05:19:43;;;;;;;9.88;8.98;;;;;;;;;;4985676;28;20057;-64
2022/08/26 05:22:08;;;;;;;10.18;9.38;;;;;;;;;;4981660;28;20073;-66
2022/08/26 05:24:35;;;;;;;10.85;9.65;;;;;;;;;;4981558;28;20654;-64
2022/08/26 05:27:01;;;;;;;10.13;9.23;;;;;;;;;;4983398;28;20030;-64
2022/08/26 05:29:26;;;;;;;13.13;9.32;;;;;;;;;;4980059;28;20062;-64
2022/08/26 05:31:52;;;;;;;10.73;9.63;;;;;;;;;;4967328;28;20030;-64
2022/08/26 05:34:17;;;;;;;11.45;10.20;;;;;;;;;;4986511;28;20074;-64
2022/08/26 05:36:42;;;;;;;12.00;9.52;;;;;;;;;;4986058;28;20138;-64
2022/08/26 05:39:08;;;;;;;12.90;9.93;;;;;;;;;;4967883;28;20053;-65
2022/08/26 05:41:34;;;;;;;18.23;10.38;;;;;;;;;;4983830;28;20050;-65
2022/08/26 05:44:00;;;;;;;10.60;9.50;;;;;;;;;;4981125;28;20453;-65
2022/08/26 05:46:26;;;;;;;10.35;8.75;;;;;;;;;;4983395;28;20421;-65
2022/08/26 05:48:52;;;;;;;9.45;8.45;;;;;;;;;;4980555;28;20065;-65
2022/08/26 05:51:17;;;;;;;10.98;8.45;;;;;;;;;;4983125;28;20065;-66
2022/08/26 05:53:43;;;;;;;11.55;9.15;;;;;;;;;;4981336;28;20267;-65
2022/08/26 05:56:08;;;;;;;9.65;8.52;;;;;;;;;;4981231;28;20027;-65
2022/08/26 05:58:35;;;;;;;12.70;8.88;;;;;;;;;;4951843;28;20472;-65
2022/08/26 06:01:04;;;;;;;11.57;9.30;;;;;;;;;;4982187;28;20026;-64
2022/08/26 06:03:31;;;;;;;11.98;10.00;;;;;;;;;;4980640;28;20034;-65
2022/08/26 06:05:56;;;;;;;9.15;8.25;;;;;;;;;;4985387;28;20026;-65
2022/08/26 06:08:22;;;;;;;11.40;10.25;;;;;;;;;;4985932;28;20027;-64
2022/08/26 06:10:51;;;;;;;10.50;9.40;;;;;;;;;;4985986;28;20022;-65
2022/08/26 06:13:18;;;;;;;11.90;9.52;;;;;;;;;;4984313;28;20030;-66
2022/08/26 06:15:44;;;;;;;10.13;9.13;;;;;;;;;;4983975;28;20536;-65
2022/08/26 06:18:10;;;;;;;13.77;8.35;;;;;;;;;;4980626;28;20065;-65
2022/08/26 06:20:35;;;;;;;11.20;8.70;;;;;;;;;;4964941;28;20068;-65
2022/08/26 06:25:45;;;;;;;12.05;9.95;;;;;;;;;;4983045;28;20081;-65
2022/08/26 06:28:12;;;;;;;10.75;9.85;;;;;;;;;;4980256;28;20026;-63
2022/08/26 06:30:39;;;;;;;11.75;9.52;;;;;;;;;;4981958;28;20034;-66
2022/08/26 06:33:04;;;;;;;12.15;10.95;;;;;;;;;;4984147;28;20053;-65
2022/08/26 06:35:29;;;;;;;10.45;9.27;;;;;;;;;;4969498;28;20034;-63
2022/08/26 06:37:54;;;;;;;10.02;8.00;;;;;;;;;;4985019;28;20030;-62
2022/08/26 06:40:21;;;;;;;10.35;9.07;;;;;;;;;;4985199;28;20579;-64
2022/08/26 06:42:46;;;;;;;16.35;12.00;;;;;;;;;;4984595;28;20555;-64
2022/08/26 06:45:13;;;;;;;9.95;8.95;;;;;;;;;;4985250;28;20124;-64
2022/08/26 06:47:38;;;;;;;13.40;9.65;;;;;;;;;;4985225;28;20572;-65
2022/08/26 06:50:03;;;;;;;11.25;10.02;;;;;;;;;;4985401;28;20038;-64
2022/08/26 06:52:29;;;;;;;9.93;8.52;;;;;;;;;;4986951;28;20026;-64
2022/08/26 06:54:54;;;;;;;16.38;9.73;;;;;;;;;;4989352;28;20034;-64
2022/08/26 06:57:19;;;;;;;10.15;8.63;;;;;;;;;;4989839;28;20030;-65
2022/08/26 06:59:44;;;;;;;12.55;8.70;;;;;;;;;;4992093;28;20051;-66
2022/08/26 07:02:09;;;;;;;10.63;8.63;;;;;;;;;;4993342;28;20034;-66
2022/08/26 07:04:35;;;;;;;9.82;8.93;;;;;;;;;;4992723;28;20405;-66
2022/08/26 07:07:00;;;;;;;12.93;11.38;;;;;;;;;;4975562;28;20031;-66
2022/08/26 07:09:26;;;;;;;12.90;9.90;;;;;;;;;;4978185;28;20030;-66
2022/08/26 07:11:52;;;;;;;9.90;8.98;;;;;;;;;;4987608;28;20033;-66
2022/08/26 07:14:17;;;;;;;13.40;9.98;;;;;;;;;;4985471;28;20022;-66
2022/08/26 07:16:43;;;;;;;13.35;10.45;;;;;;;;;;4980055;28;20503;-66
2022/08/26 07:19:08;;;;;;;12.90;10.50;;;;;;;;;;4980883;28;20030;-66
2022/08/26 07:21:34;;;;;;;12.07;9.55;;;;;;;;;;4985490;28;20038;-65
2022/08/26 07:23:59;;;;;;;12.70;10.50;;;;;;;;;;4984377;28;20058;-66
2022/08/26 07:26:26;;;;;;;12.48;10.23;;;;;;;;;;4985577;28;20042;-66
2022/08/26 07:28:53;;;;;;;12.68;10.32;;;;;;;;;;4984119;28;20065;-66
2022/08/26 07:31:20;;;;;;;11.68;10.57;;;;;;;;;;4984083;28;20590;-66
2022/08/26 07:33:45;;;;;;;11.70;10.65;;;;;;;;;;4978938;28;20163;-66
2022/08/26 07:36:11;;;;;;;11.23;9.25;;;;;;;;;;4978988;28;20042;-66
2022/08/26 07:38:38;;;;;;;16.15;11.57;;;;;;;;;;4979339;28;20085;-66
2022/08/26 07:41:03;;;;;;;10.23;9.02;;;;;;;;;;4976983;28;20037;-66
2022/08/26 07:43:29;;;;;;;11.20;9.55;;;;;;;;;;4982086;28;20034;-67
2022/08/26 07:45:55;;;;;;;11.07;9.77;;;;;;;;;;4985663;28;20038;-67
2022/08/26 07:48:20;;;;;;;11.38;9.75;;;;;;;;;;4987172;28;20499;-67
2022/08/26 07:50:46;;;;;;;13.48;10.60;;;;;;;;;;4984014;28;20041;-67
2022/08/26 07:53:11;;;;;;;12.13;9.68;;;;;;;;;;4983086;28;20455;-67
2022/08/26 07:55:37;;;;;;;11.30;9.77;;;;;;;;;;4986391;28;20485;-66
2022/08/26 07:58:04;;;;;;;11.57;10.40;;;;;;;;;;4987665;28;20057;-66
2022/08/26 08:00:31;;;;;;;10.40;9.48;;;;;;;;;;4986907;28;20092;-66
2022/08/26 08:02:57;;;;;;;11.70;10.02;;;;;;;;;;4985346;28;20073;-67
2022/08/26 08:05:22;;;;;;;10.55;9.25;;;;;;;;;;4981612;28;20816;-61
2022/08/26 08:07:47;;;;;;;10.73;9.73;;;;;;;;;;4984913;28;20604;-64
2022/08/26 08:10:15;;;;;;;11.95;10.02;;;;;;;;;;4982520;28;20034;-67
2022/08/26 08:12:40;;;;;;;11.40;10.13;;;;;;;;;;4985151;28;20486;-74
2022/08/26 08:15:06;;;;;;;11.98;10.77;;;;;;;;;;4983952;28;20030;-75
2022/08/26 08:17:33;;;;;;;11.70;9.77;;;;;;;;;;4980524;28;20352;-72
2022/08/26 08:19:58;;;;;;;10.07;9.15;;;;;;;;;;4969667;28;20066;-72
2022/08/26 08:22:24;;;;;;;12.18;9.48;;;;;;;;;;4987110;28;20058;-71
2022/08/26 08:24:49;;;;;;;12.50;9.35;;;;;;;;;;4984777;28;20422;-68
2022/08/26 08:27:14;;;;;;;10.05;9.00;;;;;;;;;;4983178;28;20022;-67
2022/08/26 08:29:40;;;;;;;13.00;9.40;;;;;;;;;;4986577;28;20041;-68
2022/08/26 08:32:05;;;;;;;11.23;10.07;;;;;;;;;;4987643;28;20030;-68
2022/08/26 08:34:31;;;;;;;11.48;9.65;;;;;;;;;;4985448;28;20080;-68
2022/08/26 08:36:56;;;;;;;11.32;8.93;;;;;;;;;;4982757;28;20071;-68
2022/08/26 08:39:21;;;;;;;9.32;8.40;;;;;;;;;;4957487;28;20084;-68
2022/08/26 08:41:54;;;;;;;9.27;8.27;;;;;;;;;;4982374;28;20563;-68
2022/08/26 08:44:20;;;;;;;15.65;8.38;;;;;;;;;;4983803;28;20081;-68
2022/08/26 08:46:49;;;;;;;11.00;8.80;;;;;;;;;;4987185;28;20129;-69
2022/08/26 08:49:14;;;;;;;9.40;8.60;;;;;;;;;;4986780;28;20041;-69
2022/08/26 08:51:40;;;;;;;15.13;10.65;;;;;;;;;;4985559;28;20038;-67
2022/08/26 08:54:06;;;;;;;8.43;7.65;;;;;;;;;;4985738;28;20030;-67
2022/08/26 08:56:36;;;;;;;13.60;9.80;;;;;;;;;;4980333;28;20030;-68
2022/08/26 08:59:14;;;;;;;10.90;9.10;;;;;;;;;;4966657;28;20026;-68
2022/08/26 09:01:45;;;;;;;9.82;8.90;;;;;;;;;;4985533;28;20031;-68
2022/08/26 09:04:29;;;;;;;10.20;9.23;;;;;;;;;;4987182;28;20038;-69
2022/08/26 09:06:57;;;;;;;14.70;8.57;;;;;;;;;;4985849;28;20030;-68
2022/08/26 09:09:35;;;;;;;8.55;7.65;;;;;;;;;;4964182;28;20453;-69
2022/08/26 09:12:00;;;;;;;10.43;8.77;;;;;;;;;;4980978;28;20492;-67
2022/08/26 09:14:26;;;;;;;11.45;8.07;;;;;;;;;;4983171;28;20030;-68
2022/08/26 09:17:01;;;;;;;12.48;8.10;;;;;;;;;;4981041;28;20556;-68
2022/08/26 09:19:32;;;;;;;10.80;8.18;;;;;;;;;;4984151;28;20469;-68
2022/08/26 09:21:59;;;;;;;9.25;8.23;;;;;;;;;;4980886;28;20477;-69
2022/08/26 09:24:25;;;;;;;9.55;7.97;;;;;;;;;;4985641;28;20374;-69
2022/08/26 09:26:51;;;;;;;9.07;8.13;;;;;;;;;;4970179;28;20034;-62
2022/08/26 09:29:19;;;;;;;9.95;8.40;;;;;;;;;;4986121;28;20072;-66
2022/08/26 09:31:44;;;;;;;9.63;8.80;;;;;;;;;;4981118;28;20049;-68
2022/08/26 09:34:17;;;;;;;12.82;8.43;;;;;;;;;;4981699;28;20920;-68
2022/08/26 09:36:50;;;;;;;11.68;8.23;;;;;;;;;;4985640;28;20026;-68
2022/08/26 09:39:25;;;;;;;11.13;8.40;;;;;;;;;;4986075;28;20030;-69
2022/08/26 09:41:50;;;;;;;;;;;;;;;;;;4986586;28;20467;-66
2022/08/26 09:44:16;;;;;;;9.38;7.72;;;;;;;;;;4985174;28;20303;-70
2022/08/26 09:46:51;;;;;;;9.93;8.68;;;;;;;;;;4983603;28;20125;-66
2022/08/26 09:49:22;;;;;;;9.77;7.97;;;;;;;;;;4985865;28;20022;-59
2022/08/26 09:51:47;;;;;;;10.23;8.68;;;;;;;;;;4981105;28;20049;-67
2022/08/26 09:54:25;;;;;;;20.10;10.73;;;;;;;;;;4965505;28;20034;-67
2022/08/26 09:56:51;;;;;;;11.02;9.23;;;;;;;;;;4984977;28;20491;-66
2022/08/26 09:59:28;;;;;;;10.10;9.10;;;;;;;;;;4983583;28;20030;-67
2022/08/26 10:01:53;;;;;;;13.70;9.27;;;;;;;;;;4985851;28;20030;-67
2022/08/26 10:04:20;;;;;;;10.70;8.88;;;;;;;;;;4984747;28;20034;-67
2022/08/26 10:07:03;;;;;;;9.68;8.75;;;;;;;;;;4986034;28;20132;-67
2022/08/26 10:09:32;;;;;;;11.07;8.95;;;;;;;;;;4980543;28;20106;-67
2022/08/26 10:11:59;;;;;;;11.38;8.65;;;;;;;;;;4983092;28;20026;-67
2022/08/26 10:14:29;;;;;;;9.75;8.25;;;;;;;;;;4985133;28;20062;-67
2022/08/26 10:17:01;;;;;;;10.70;9.20;;;;;;;;;;4985522;28;20105;-67
2022/08/26 10:19:46;;;;;;;14.02;9.38;;;;;;;;;;4980763;28;20084;-67
2022/08/26 10:22:11;;;;;;;10.63;8.63;;;;;;;;;;4981483;28;20042;-68
2022/08/26 10:24:40;;;;;;;9.57;8.75;;;;;;;;;;4980179;28;20026;-68
2022/08/26 10:27:24;;;;;;;11.35;8.45;;;;;;;;;;4981084;28;20101;-68
2022/08/26 10:29:59;;;;;;;11.63;7.40;;;;;;;;;;4980737;28;20528;-68
2022/08/26 10:32:39;;;;;;;10.57;8.35;;;;;;;;;;4961218;28;20058;-67
2022/08/26 10:35:06;;;;;;;12.52;7.78;;;;;;;;;;4968301;28;20050;-68
2022/08/26 10:37:35;;;;;;;11.15;7.32;;;;;;;;;;4984145;28;20477;-68
2022/08/26 10:40:12;;;;;;;10.38;7.85;;;;;;;;;;4984371;28;20428;-67
2022/08/26 10:42:53;;;;;;;13.80;8.65;;;;;;;;;;4984735;28;20034;-67
2022/08/26 10:45:24;;;;;;;11.25;7.95;;;;;;;;;;4984359;28;20128;-68
2022/08/26 10:47:52;;;;;;;14.95;8.18;;;;;;;;;;4981090;28;20034;-68
2022/08/26 10:50:19;;;;;;;12.77;7.63;;;;;;;;;;4980214;28;20057;-66
2022/08/26 10:53:00;;;;;;;9.65;7.75;;;;;;;;;;4984437;28;20030;-68
2022/08/26 10:55:26;;;;;;;11.32;7.25;;;;;;;;;;4983001;28;20568;-68
2022/08/26 10:57:57;;;;;;;8.30;7.50;;;;;;;;;;4984019;28;20026;-67
2022/08/26 11:03:23;;;;;;;12.30;7.70;;;;;;;;;;4984445;28;20134;-68
2022/08/26 11:06:07;;;;;;;9.50;8.30;;;;;;;;;;4966793;28;20113;-66
2022/08/26 11:08:32;;;;;;;13.15;7.97;;;;;;;;;;4954996;28;20467;-66
2022/08/26 11:10:59;;;;;;;10.13;7.05;;;;;;;;;;4978869;28;20042;-68
2022/08/26 11:13:42;;;;;;;9.60;6.90;;;;;;;;;;4982190;28;20034;-68
2022/08/26 11:16:08;;;;;;;8.52;7.68;;;;;;;;;;4983915;28;20030;-67
2022/08/26 11:18:43;;;;;;;14.65;7.78;;;;;;;;;;4957039;28;20096;-68
2022/08/26 11:21:27;;;;;;;12.68;7.80;;;;;;;;;;4985575;28;20031;-70
2022/08/26 11:23:52;;;;;;;11.18;7.40;;;;;;;;;;4975271;28;20057;-68
2022/08/26 11:26:17;;;;;;;16.15;7.57;;;;;;;;;;4986195;28;20066;-68
2022/08/26 11:28:44;;;;;;;12.02;8.18;;;;;;;;;;4988258;28;20330;-67
2022/08/26 11:31:11;;;;;;;12.80;8.38;;;;;;;;;;4987393;28;20019;-68
2022/08/26 11:33:42;;;;;;;7.80;7.03;;;;;;;;;;4987050;28;20063;-67
2022/08/26 11:36:08;;;;;;;11.00;7.40;;;;;;;;;;4987972;28;20099;-64
2022/08/26 11:38:34;;;;;;;14.77;8.98;;;;;;;;;;4972952;28;20034;-63
2022/08/26 11:41:10;;;;;;;12.10;7.75;;;;;;;;;;4986031;28;20042;-64
2022/08/26 11:43:37;;;;;;;8.10;7.20;;;;;;;;;;4985564;28;20508;-64
2022/08/26 11:46:04;;;;;;;10.38;6.95;;;;;;;;;;4982367;28;20120;-68
2022/08/26 11:48:37;;;;;;;12.63;8.38;;;;;;;;;;4984346;28;20030;-68
2022/08/26 11:51:07;;;;;;;8.07;7.28;;;;;;;;;;4987585;28;20037;-68
2022/08/26 11:53:34;;;;;;;12.82;8.70;;;;;;;;;;4987465;28;20431;-69
2022/08/26 11:56:02;;;;;;;10.55;7.50;;;;;;;;;;4986458;28;20168;-69
2022/08/26 11:58:28;;;;;;;15.05;7.63;;;;;;;;;;4984666;28;20449;-69
2022/08/26 12:01:05;;;;;;;11.35;7.70;;;;;;;;;;4982750;28;20773;-69
2022/08/26 12:03:43;;;;;;;10.82;7.63;;;;;;;;;;4983742;28;20465;-68
2022/08/26 12:06:14;;;;;;;11.70;7.53;;;;;;;;;;4986718;28;20032;-67
2022/08/26 12:08:42;;;;;;;10.18;7.80;;;;;;;;;;4986288;28;20029;-68
2022/08/26 12:11:09;;;;;;;11.80;7.53;;;;;;;;;;4960033;28;20054;-68
2022/08/26 12:13:37;;;;;;;9.27;7.50;;;;;;;;;;4984826;28;20076;-68
2022/08/26 12:16:03;;;;;;;11.38;7.30;;;;;;;;;;4981824;28;20528;-69
2022/08/26 12:18:32;;;;;;;10.82;7.63;;;;;;;;;;4981930;28;20045;-67
2022/08/26 12:20:58;;;;;;;11.13;7.45;;;;;;;;;;4985351;28;20140;-69
2022/08/26 12:23:35;;;;;;;8.77;6.78;;;;;;;;;;4982779;28;20034;-68
2022/08/26 12:26:02;;;;;;;10.73;6.82;;;;;;;;;;4981266;28;20065;-68
2022/08/26 12:28:28;;;;;;;10.38;7.03;;;;;;;;;;4986020;28;20381;-65
2022/08/26 12:30:58;;;;;;;9.88;7.07;;;;;;;;;;4986492;28;20034;-68
2022/08/26 12:33:24;;;;;;;11.05;6.38;;;;;;;;;;4986824;28;20050;-68
2022/08/26 12:35:50;;;;;;;15.88;6.97;;;;;;;;;;4986931;28;20027;-69
2022/08/26 12:38:15;;;;;;;9.73;7.00;;;;;;;;;;4985677;28;20034;-68
2022/08/26 12:40:42;;;;;;;12.23;7.60;;;;;;;;;;4981287;28;20061;-69
2022/08/26 12:43:09;;;;;;;15.27;6.25;;;;;;;;;;4983635;28;20161;-68
2022/08/26 12:45:42;;;;;;;8.88;6.28;;;;;;;;;;4987001;28;20131;-62
2022/08/26 12:48:19;;;;;;;8.60;6.53;;;;;;;;;;4986943;28;20066;-62
2022/08/26 12:50:46;;;;;;;10.02;6.53;;;;;;;;;;4986267;28;20484;-61
2022/08/26 12:53:11;;;;;;;10.07;6.60;;;;;;;;;;4986429;28;20598;-62
2022/08/26 12:55:38;;;;;;;7.23;6.53;;;;;;;;;;4986687;28;20034;-63
2022/08/26 12:58:09;;;;;;;8.60;6.47;;;;;;;;;;4985678;28;20559;-64
2022/08/26 13:00:36;;;;;;;6.80;6.10;;;;;;;;;;4986232;28;20571;-63
2022/08/26 13:03:01;;;;;;;10.00;6.13;;;;;;;;;;4969051;28;20209;-62
2022/08/26 13:05:31;;;;;;;10.20;6.68;;;;;;;;;;4970317;28;20440;-62
2022/08/26 13:08:15;;;;;;;6.70;6.10;;;;;;;;;;4986784;28;20037;-62
2022/08/26 13:10:42;;;;;;;11.50;6.60;;;;;;;;;;4985608;28;20084;-63
2022/08/26 13:13:07;;;;;;;10.88;6.57;;;;;;;;;;4986283;28;20030;-62
2022/08/26 13:15:32;;;;;;;9.40;6.82;;;;;;;;;;4985668;28;20034;-61
2022/08/26 13:17:58;;;;;;;10.43;7.75;;;;;;;;;;4982090;28;20487;-61
2022/08/26 13:20:23;;;;;;;10.73;6.83;;;;;;;;;;4962540;28;20081;-62
2022/08/26 13:22:48;;;;;;;9.20;6.93;;;;;;;;;;4986613;28;20361;-61
2022/08/26 13:25:14;;;;;;;10.38;7.10;;;;;;;;;;4985659;28;20036;-60
2022/08/26 13:27:39;;;;;;;11.52;7.72;;;;;;;;;;4984890;28;20022;-62
2022/08/26 13:30:05;;;;;;;13.32;7.50;;;;;;;;;;4985300;28;20030;-62
2022/08/26 13:32:31;;;;;;;12.88;6.45;;;;;;;;;;4985701;28;20698;-62
2022/08/26 13:34:56;;;;;;;13.73;6.55;;;;;;;;;;4986339;28;20058;-62
2022/08/26 13:37:22;;;;;;;10.55;6.97;;;;;;;;;;4986001;28;20376;-61
2022/08/26 13:39:49;;;;;;;8.63;7.03;;;;;;;;;;4983508;28;20040;-61
2022/08/26 13:42:15;;;;;;;9.45;7.63;;;;;;;;;;4979533;28;20489;-63
2022/08/26 13:44:42;;;;;;;10.85;6.72;;;;;;;;;;4982862;28;20037;-61
2022/08/26 13:47:07;;;;;;;17.20;10.80;;;;;;;;;;4985120;28;20038;-61
2022/08/26 13:49:33;;;;;;;20.20;17.63;;;;;;;;;;4984929;28;20096;-61
2022/08/26 13:51:58;;;;;;;24.10;21.13;;;;;;;;;;4980254;28;20122;-61
2022/08/26 13:54:23;;;;;;;13.73;11.48;;;;;;;;;;4980011;28;20372;-61
2022/08/26 13:56:48;;;;;;;15.15;9.05;;;;;;;;;;4985300;28;20041;-62
2022/08/26 13:59:14;;;;;;;16.33;10.27;;;;;;;;;;4984444;28;20026;-61
2022/08/26 14:01:39;;;;;;;11.75;7.68;;;;;;;;;;4985436;28;20034;-60
2022/08/26 14:04:04;;;;;;;9.85;6.93;;;;;;;;;;4985223;28;20033;-61
2022/08/26 14:06:30;;;;;;;14.63;7.13;;;;;;;;;;4984709;28;20026;-60
2022/08/26 14:08:55;;;;;;;10.93;8.20;;;;;;;;;;4985370;28;20092;-61
2022/08/26 14:11:21;;;;;;;10.13;7.28;;;;;;;;;;4985148;28;20522;-61
2022/08/26 14:13:46;;;;;;;11.70;7.50;;;;;;;;;;4984549;28;20120;-60
2022/08/26 14:16:17;;;;;;;11.93;8.32;;;;;;;;;;4985358;28;20611;-60
2022/08/26 14:18:42;;;;;;;9.57;6.85;;;;;;;;;;4985756;28;20088;-60
2022/08/26 14:21:10;;;;;;;10.77;8.80;;;;;;;;;;4984837;28;20451;-60
2022/08/26 14:23:35;;;;;;;12.80;11.25;;;;;;;;;;4982627;28;20022;-61
2022/08/26 14:26:02;;;;;;;7.07;6.10;;;;;;;;;;4979777;28;20081;-61
2022/08/26 14:28:28;;;;;;;6.38;5.82;;;;;;;;;;4983569;28;20404;-61
2022/08/26 14:30:54;;;;;;;10.52;6.75;;;;;;;;;;4984125;28;20031;-60
2022/08/26 14:33:23;;;;;;;12.82;7.55;;;;;;;;;;4982418;28;20484;-61
2022/08/26 14:35:48;;;;;;;8.32;6.90;;;;;;;;;;4979689;28;20464;-61